Time;durP1;ratioP1;P1;durP2;ratioP2;P2;SDS_P1;SDS_P2;PMS_P1;PMS_P2;Temp;Humidity;BMP_temperature;BMP_pressure;BME280_temperature;BME280_humidity;BME280_pressure;Samples;Min_cycle;Max_cycle;Signal;HPM_P1;HPM_P2
2023/08/05 00:00:42;;;;;;;13.00;6.10;;;;;;;19.50;100.00;101090.55;105602;1256;368167;-45
2023/08/05 00:04:16;;;;;;;9.00;6.10;;;;;;;19.52;100.00;101106.44;102656;1291;600062;-46
2023/08/05 00:06:45;;;;;;;8.50;5.10;;;;;;;19.48;100.00;101084.20;104907;1271;60402;-44
2023/08/05 00:09:14;;;;;;;6.60;5.70;;;;;;;19.45;100.00;101083.81;104781;1271;59304;-46
2023/08/05 00:11:41;;;;;;;7.90;5.40;;;;;;;19.42;100.00;101082.04;104781;1267;70999;-45
2023/08/05 00:14:09;;;;;;;6.20;5.10;;;;;;;19.42;100.00;101076.07;105059;1273;63931;-45
2023/08/05 00:16:37;;;;;;;8.00;5.30;;;;;;;19.44;100.00;101070.03;104738;1271;71038;-46
2023/08/05 00:19:06;;;;;;;6.30;5.70;;;;;;;19.43;100.00;101065.54;104708;1266;284873;-46
2023/08/05 00:21:34;;;;;;;6.30;5.30;;;;;;;19.40;100.00;101066.02;104898;1266;59299;-46
2023/08/05 00:24:01;;;;;;;7.20;5.30;;;;;;;19.38;100.00;101063.67;104863;1266;71066;-46
2023/08/05 00:26:29;;;;;;;6.30;5.20;;;;;;;19.35;100.00;101065.20;104964;1265;63578;-45
2023/08/05 00:28:57;;;;;;;9.10;5.50;;;;;;;19.32;100.00;101066.91;105606;1262;71448;-46
2023/08/05 00:31:26;;;;;;;10.70;5.70;;;;;;;19.28;100.00;101065.15;105437;1258;60734;-45
2023/08/05 00:33:54;;;;;;;8.40;6.10;;;;;;;19.26;100.00;101068.42;105465;1262;59752;-46
2023/08/05 00:36:22;;;;;;;11.80;7.00;;;;;;;19.23;100.00;101070.09;105662;1257;71852;-44
2023/08/05 00:38:49;;;;;;;7.80;6.90;;;;;;;19.21;100.00;101071.94;105572;1261;63937;-45
2023/08/05 00:41:17;;;;;;;11.10;7.00;;;;;;;19.17;100.00;101071.59;105452;1260;71191;-45
2023/08/05 00:43:45;;;;;;;7.80;7.00;;;;;;;19.13;100.00;101076.50;105448;1260;60704;-45
2023/08/05 00:46:13;;;;;;;10.60;6.40;;;;;;;19.10;100.00;101074.73;105453;1258;59529;-44
2023/08/05 00:48:40;;;;;;;13.20;6.60;;;;;;;19.07;100.00;101070.98;105355;1257;71793;-44
2023/08/05 00:51:08;;;;;;;12.50;5.60;;;;;;;19.06;100.00;101064.73;105412;1262;63949;-44
2023/08/05 00:53:36;;;;;;;11.80;6.40;;;;;;;19.04;100.00;101062.53;105409;1259;72673;-44
2023/08/05 00:56:04;;;;;;;5.50;4.70;;;;;;;19.04;100.00;101059.94;105489;1259;61674;-44
2023/08/05 00:58:32;;;;;;;5.60;5.00;;;;;;;19.05;100.00;101057.43;105412;1258;60076;-44
2023/08/05 01:01:00;;;;;;;7.30;5.70;;;;;;;19.07;100.00;101054.34;105654;1262;73002;-47
2023/08/05 01:03:27;;;;;;;10.00;5.10;;;;;;;19.12;100.00;101049.80;105435;1262;65191;-47
2023/08/05 01:05:56;;;;;;;5.90;4.50;;;;;;;19.16;100.00;101044.69;105597;1259;71698;-46
2023/08/05 01:08:24;;;;;;;6.60;4.70;;;;;;;19.20;100.00;101044.84;105447;1258;60902;-45
2023/08/05 01:10:51;;;;;;;13.00;4.40;;;;;;;19.24;100.00;101037.66;105451;1262;59780;-46
2023/08/05 01:13:20;;;;;;;7.00;4.20;;;;;;;19.27;100.00;101039.85;105444;1260;72129;-48
2023/08/05 01:15:48;;;;;;;7.30;4.90;;;;;;;19.29;100.00;101046.56;105422;1262;65279;-45
2023/08/05 01:18:16;;;;;;;9.90;4.90;;;;;;;19.31;100.00;101049.97;105426;1262;72610;-45
2023/08/05 01:20:54;;;;;;;5.60;5.20;;;;;;;19.31;100.00;101049.09;105480;1258;60421;-45
2023/08/05 01:23:47;;;;;;;10.20;5.00;;;;;;;19.27;100.00;101051.73;105305;1263;59543;-45
2023/08/05 01:26:14;;;;;;;5.30;4.90;;;;;;;19.23;100.00;101062.05;105443;1257;71795;-45
2023/08/05 01:28:42;;;;;;;8.30;5.40;;;;;;;19.19;100.00;101068.86;105445;1262;64038;-45
2023/08/05 01:31:10;;;;;;;7.50;5.00;;;;;;;19.15;100.00;101079.23;105427;1260;72599;-45
2023/08/05 01:33:38;;;;;;;9.80;4.80;;;;;;;19.09;100.00;101084.70;105301;1260;61644;-45
2023/08/05 01:36:06;;;;;;;8.20;5.00;;;;;;;19.06;100.00;101084.86;105298;1265;59540;-45
2023/08/05 01:38:33;;;;;;;16.60;5.40;;;;;;;19.02;100.00;101086.79;105408;1262;71908;-45
2023/08/05 01:41:01;;;;;;;5.50;4.90;;;;;;;18.99;100.00;101086.23;105504;1259;64407;-45
2023/08/05 01:43:29;;;;;;;9.90;4.90;;;;;;;18.96;100.00;101094.32;105448;1262;71465;-45
2023/08/05 01:45:57;;;;;;;7.50;5.10;;;;;;;18.95;100.00;101094.89;105465;1257;60071;-45
2023/08/05 01:48:24;;;;;;;6.70;4.90;;;;;;;18.94;100.00;101089.86;105272;1259;59540;-45
2023/08/05 01:50:52;;;;;;;10.70;4.50;;;;;;;18.91;100.00;101092.81;105651;1254;71759;-45
2023/08/05 01:53:20;;;;;;;9.90;5.50;;;;;;;18.86;100.00;101093.73;105636;1255;63919;-45
2023/08/05 01:55:47;;;;;;;7.90;4.60;;;;;;;18.81;100.00;101100.05;105628;1257;70898;-45
2023/08/05 01:58:15;;;;;;;10.50;5.00;;;;;;;18.75;100.00;101102.05;105606;1260;60649;-45
2023/08/05 02:00:52;;;;;;;8.60;5.10;;;;;;;18.70;100.00;101102.63;105594;1261;59567;-45
2023/08/05 02:03:20;;;;;;;11.70;5.70;;;;;;;18.64;100.00;101101.99;105621;1253;71888;-45
2023/08/05 02:05:48;;;;;;;8.40;5.20;;;;;;;18.59;100.00;101101.66;105731;1258;65147;-45
2023/08/05 02:08:16;;;;;;;13.20;5.70;;;;;;;18.56;100.00;101103.55;105628;1259;72509;-45
2023/08/05 02:10:44;;;;;;;11.00;5.70;;;;;;;18.52;100.00;101103.17;105721;1258;60407;-45
2023/08/05 02:13:11;;;;;;;8.50;5.30;;;;;;;18.49;100.00;101100.67;105662;1259;60005;-45
2023/08/05 02:15:39;;;;;;;7.60;5.50;;;;;;;18.47;100.00;101095.88;105654;1255;71902;-45
2023/08/05 02:18:07;;;;;;;10.30;5.70;;;;;;;18.45;100.00;101096.83;105676;1253;64341;-45
2023/08/05 02:20:34;;;;;;;14.90;5.80;;;;;;;18.43;100.00;101093.97;105653;1259;71183;-46
2023/08/05 02:23:03;;;;;;;6.70;5.60;;;;;;;18.42;100.00;101087.70;105750;1253;60477;-45
2023/08/05 02:25:33;;;;;;;6.50;5.10;;;;;;;18.41;100.00;101087.41;105779;1259;59996;-45
2023/08/05 02:28:00;;;;;;;6.90;5.10;;;;;;;18.37;100.00;101089.97;105646;1260;71495;-45
2023/08/05 02:30:29;;;;;;;7.90;5.80;;;;;;;18.34;100.00;101088.21;105650;1254;64336;-45
2023/08/05 02:32:57;;;;;;;13.20;5.90;;;;;;;18.32;100.00;101090.39;105649;1254;73359;-45
2023/08/05 02:35:24;;;;;;;10.40;6.10;;;;;;;18.30;100.00;101089.56;105660;1258;61706;-44
2023/08/05 02:37:52;;;;;;;10.30;6.30;;;;;;;18.30;100.00;101091.30;105598;1258;60009;-45
2023/08/05 02:40:20;;;;;;;13.60;6.40;;;;;;;18.29;100.00;101089.60;105657;1254;71826;-45
2023/08/05 02:42:47;;;;;;;12.30;6.40;;;;;;;18.28;100.00;101090.34;105647;1255;64333;-45
2023/08/05 02:45:15;;;;;;;9.50;6.30;;;;;;;18.28;100.00;101087.22;105634;1260;71465;-45
2023/08/05 02:47:43;;;;;;;19.10;7.80;;;;;;;18.29;100.00;101085.07;105625;1254;61012;-45
2023/08/05 02:50:11;;;;;;;16.80;7.70;;;;;;;18.33;100.00;101081.10;105632;1259;59604;-45
2023/08/05 02:52:39;;;;;;;19.70;9.40;;;;;;;18.36;100.00;101077.82;105608;1255;70855;-45
2023/08/05 02:55:07;;;;;;;18.70;7.80;;;;;;;18.40;100.00;101072.23;105605;1253;65171;-45
2023/08/05 02:57:35;;;;;;;13.30;7.60;;;;;;;18.43;100.00;101069.99;105645;1259;72647;-45
2023/08/05 03:00:04;;;;;;;17.90;8.30;;;;;;;18.46;100.00;101067.60;105781;1259;59837;-45
2023/08/05 03:02:31;;;;;;;13.70;7.70;;;;;;;18.49;100.00;101072.02;105742;1259;59565;-45
2023/08/05 03:04:59;;;;;;;17.90;9.70;;;;;;;18.52;100.00;101069.09;105663;1261;73022;-45
2023/08/05 03:07:27;;;;;;;55.20;9.50;;;;;;;18.56;100.00;101076.13;105651;1258;63914;-45
2023/08/05 03:09:55;;;;;;;35.20;9.00;;;;;;;18.59;100.00;101074.40;105624;1258;72312;-45
2023/08/05 03:12:24;;;;;;;31.30;8.70;;;;;;;18.64;100.00;101071.58;105675;1260;60567;-45
2023/08/05 03:14:52;;;;;;;15.80;8.30;;;;;;;18.68;100.00;101073.86;105803;1254;60047;-45
2023/08/05 03:17:19;;;;;;;17.70;8.90;;;;;;;18.72;100.00;101076.14;105643;1260;72966;-45
2023/08/05 03:19:52;;;;;;;17.50;8.60;;;;;;;18.78;100.00;101078.34;105682;1261;64332;-45
2023/08/05 03:22:21;;;;;;;17.70;8.60;;;;;;;18.86;100.00;101077.48;105754;1259;71756;-45
2023/08/05 03:24:49;;;;;;;22.20;8.50;;;;;;;18.93;100.00;101074.36;105632;1255;61680;-45
2023/08/05 03:27:17;;;;;;;19.10;8.30;;;;;;;19.00;100.00;101076.89;105721;1255;59540;-45
2023/08/05 03:29:46;;;;;;;18.00;8.80;;;;;;;19.07;100.00;101075.71;105681;1259;73041;-45
2023/08/05 03:32:14;;;;;;;12.00;7.90;;;;;;;19.15;100.00;101077.81;105689;1257;65146;-46
2023/08/05 03:34:42;;;;;;;14.00;7.80;;;;;;;19.23;100.00;101081.64;105677;1259;72638;-44
2023/08/05 03:37:11;;;;;;;16.40;8.00;;;;;;;19.35;100.00;101084.60;105629;1254;60152;-45
2023/08/05 03:39:38;;;;;;;18.60;8.20;;;;;;;19.47;100.00;101084.06;105718;1259;59956;-44
2023/08/05 03:42:06;;;;;;;26.20;8.00;;;;;;;19.58;100.00;101083.89;105814;1258;72865;-45
2023/08/05 03:44:35;;;;;;;16.50;7.10;;;;;;;19.71;100.00;101081.71;105673;1258;65171;-45
2023/08/05 03:47:03;;;;;;;16.00;8.80;;;;;;;19.87;100.00;101083.63;105661;1259;71359;-46
2023/08/05 03:49:31;;;;;;;23.20;11.90;;;;;;;20.01;100.00;101090.17;105629;1259;61700;-45
2023/08/05 03:51:59;;;;;;;33.90;17.80;;;;;;;20.16;100.00;101089.80;105641;1259;60035;-45
2023/08/05 03:54:27;;;;;;;33.40;17.90;;;;;;;20.33;100.00;101093.54;105697;1255;73045;-45
2023/08/05 03:56:58;;;;;;;29.90;18.40;;;;;;;20.55;100.00;101091.59;105625;1260;63997;-45
2023/08/05 03:59:26;;;;;;;33.10;17.90;;;;;;;20.87;100.00;101098.95;105637;1258;70699;-45
2023/08/05 04:01:54;;;;;;;30.10;16.90;;;;;;;21.25;100.00;101095.19;105598;1265;60644;-46
2023/08/05 04:04:22;;;;;;;44.90;26.20;;;;;;;21.70;100.00;101100.52;105639;1260;59614;-45
2023/08/05 04:06:50;;;;;;;31.00;18.90;;;;;;;22.16;100.00;101110.30;105679;1259;72084;-45
2023/08/05 04:09:19;;;;;;;36.60;19.10;;;;;;;22.61;100.00;101132.02;105689;1255;63961;-45
2023/08/05 04:11:49;;;;;;;32.20;14.90;;;;;;;23.05;100.00;101161.25;105687;1259;71404;-45
2023/08/05 04:14:19;;;;;;;24.60;10.90;;;;;;;23.49;100.00;101215.20;105659;1254;60437;-46
2023/08/05 04:16:51;;;;;;;26.90;9.80;;;;;;;23.93;100.00;101292.67;105697;1260;60442;-46
2023/08/05 04:19:19;;;;;;;21.50;7.60;;;;;;;24.33;100.00;101398.13;105640;1260;74194;-46
2023/08/05 04:21:48;;;;;;;21.80;8.10;;;;;;;24.69;100.00;101492.26;105633;1258;63933;-46
2023/08/05 04:24:18;;;;;;;22.50;7.70;;;;;;;25.05;100.00;101524.80;105683;1259;72647;-43
2023/08/05 04:26:46;;;;;;;21.30;7.40;;;;;;;25.42;100.00;101454.98;105723;1261;60426;-44
2023/08/05 04:29:17;;;;;;;21.20;7.90;;;;;;;25.77;100.00;101297.20;105668;1268;60348;-44
2023/08/05 04:31:45;;;;;;;15.70;7.50;;;;;;;26.06;100.00;101073.09;105721;1258;72625;-44
2023/08/05 04:34:13;;;;;;;18.10;8.00;;;;;;;26.34;100.00;100886.91;105686;1254;63933;-44
2023/08/05 04:36:47;;;;;;;18.10;8.30;;;;;;;26.60;100.00;100733.10;105826;1258;71408;-44
2023/08/05 04:39:15;;;;;;;20.90;9.20;;;;;;;26.83;100.00;100650.02;105676;1260;60420;-44
2023/08/05 04:41:42;;;;;;;14.50;9.50;;;;;;;26.96;100.00;100563.06;105644;1260;60385;-44
2023/08/05 04:44:11;;;;;;;27.00;9.50;;;;;;;26.98;100.00;100532.59;105641;1261;74006;-44
2023/08/05 04:46:39;;;;;;;19.30;8.80;;;;;;;27.03;100.00;100536.58;105682;1254;63976;-44
2023/08/05 04:49:09;;;;;;;20.30;9.40;;;;;;;27.07;100.00;100531.88;105725;1259;71448;-44
2023/08/05 04:51:37;;;;;;;25.50;9.20;;;;;;;27.11;100.00;100546.20;105651;1260;60533;-44
2023/08/05 04:54:06;;;;;;;19.60;8.70;;;;;;;27.21;100.00;100551.83;105680;1258;60368;-44
2023/08/05 04:56:35;;;;;;;26.10;8.60;;;;;;;27.37;100.00;100553.35;105690;1254;72632;-45
2023/08/05 04:59:03;;;;;;;30.70;9.30;;;;;;;27.55;100.00;100553.91;105719;1252;63704;-44
2023/08/05 05:01:32;;;;;;;23.20;9.20;;;;;;;27.77;100.00;100555.28;105654;1254;71625;-46
2023/08/05 05:04:01;;;;;;;21.70;9.60;;;;;;;28.03;100.00;100564.67;105785;1258;60414;-48
2023/08/05 05:06:29;;;;;;;21.10;10.00;;;;;;;28.27;100.00;100575.00;105710;1257;60412;-45
2023/08/05 05:08:57;;;;;;;28.00;10.20;;;;;;;28.57;100.00;100582.73;105695;1254;72555;-46
2023/08/05 05:11:24;;;;;;;25.70;9.90;;;;;;;28.89;100.00;100611.58;105553;1259;64221;-46
2023/08/05 05:13:52;;;;;;;27.20;10.50;;;;;;;29.10;100.00;100658.21;105686;1254;72671;-47
2023/08/05 05:16:19;;;;;;;27.60;9.90;;;;;;;29.28;100.00;100683.20;105642;1259;60610;-46
2023/08/05 05:18:48;;;;;;;25.90;8.50;;;;;;;29.44;100.00;100708.21;105784;1257;60428;-45
2023/08/05 05:21:15;;;;;;;23.00;10.80;;;;;;;29.63;100.00;100722.98;105682;1253;72559;-45
2023/08/05 05:23:44;;;;;;;24.70;9.90;;;;;;;29.85;100.00;100753.03;105676;1254;64126;-45
2023/08/05 05:26:12;;;;;;;31.00;11.00;;;;;;;30.04;100.00;100772.58;105715;1259;72410;-45
2023/08/05 05:28:40;;;;;;;25.50;10.70;;;;;;;30.22;100.00;100786.01;105648;1254;60426;-45
2023/08/05 05:31:08;;;;;;;29.30;10.90;;;;;;;30.40;100.00;100790.81;105718;1254;60534;-45
2023/08/05 05:33:36;;;;;;;20.30;9.30;;;;;;;30.53;100.00;100793.68;105630;1257;72559;-45
2023/08/05 05:36:03;;;;;;;18.80;8.70;;;;;;;30.62;100.00;100793.86;105665;1254;63875;-46
2023/08/05 05:38:31;;;;;;;19.10;9.40;;;;;;;30.68;100.00;100809.86;105611;1259;71567;-45
2023/08/05 05:40:59;;;;;;;18.00;8.70;;;;;;;30.79;98.83;100818.61;105708;1252;60440;-45
2023/08/05 05:43:27;;;;;;;17.70;8.40;;;;;;;30.86;94.00;100820.20;105848;1254;60536;-45
2023/08/05 05:45:54;;;;;;;17.40;7.70;;;;;;;30.85;86.63;100809.80;105680;1253;73841;-45
2023/08/05 05:48:22;;;;;;;18.30;7.40;;;;;;;30.72;79.44;100791.73;105671;1260;63952;-45
2023/08/05 05:50:53;;;;;;;17.30;7.20;;;;;;;30.54;77.76;100809.55;105651;1259;72671;-45
2023/08/05 05:53:21;;;;;;;11.80;7.20;;;;;;;30.37;80.72;100844.17;105797;1254;60419;-45
2023/08/05 05:55:55;;;;;;;17.10;7.90;;;;;;;30.26;80.59;100844.67;105661;1254;60534;-45
2023/08/05 05:58:23;;;;;;;17.60;7.00;;;;;;;30.20;82.02;100855.92;105724;1253;72571;-46
2023/08/05 06:00:56;;;;;;;15.40;6.60;;;;;;;30.16;80.10;100843.14;105677;1254;63682;-46
2023/08/05 06:03:25;;;;;;;15.70;6.40;;;;;;;30.07;78.03;100831.57;105655;1259;71389;-45
2023/08/05 06:05:53;;;;;;;8.90;6.80;;;;;;;30.00;78.06;100842.87;105692;1257;60536;-45
2023/08/05 06:08:21;;;;;;;12.60;7.00;;;;;;;29.94;79.45;100856.08;105664;1260;60332;-45
2023/08/05 06:10:48;;;;;;;11.20;7.00;;;;;;;29.84;82.23;100867.15;105638;1253;72642;-45
2023/08/05 06:13:16;;;;;;;9.00;6.50;;;;;;;29.76;81.23;100849.85;105644;1253;64171;-44
2023/08/05 06:15:44;;;;;;;12.20;6.90;;;;;;;29.62;77.87;100831.80;105663;1257;71512;-45
2023/08/05 06:18:12;;;;;;;12.60;7.60;;;;;;;29.46;77.63;100841.52;105688;1260;60521;-45
2023/08/05 06:20:39;;;;;;;14.40;6.80;;;;;;;29.29;78.32;100859.35;105677;1258;60423;-44
2023/08/05 06:23:07;;;;;;;11.50;6.90;;;;;;;29.11;79.20;100870.75;105622;1254;72599;-45
2023/08/05 06:25:35;;;;;;;16.80;7.40;;;;;;;29.00;80.78;100878.50;105624;1254;63416;-45
2023/08/05 06:28:03;;;;;;;11.20;8.10;;;;;;;28.97;88.12;100900.58;105621;1260;71306;-46
2023/08/05 06:30:31;;;;;;;14.50;7.90;;;;;;;28.99;95.62;100900.73;105821;1254;60519;-46
2023/08/05 06:33:01;;;;;;;9.80;7.70;;;;;;;29.02;99.78;100902.15;105864;1260;60396;-46
2023/08/05 06:35:30;;;;;;;14.60;8.10;;;;;;;29.03;99.72;100885.89;105717;1255;72607;-46
2023/08/05 06:37:57;;;;;;;11.80;7.30;;;;;;;29.08;98.00;100877.37;105508;1261;64050;-45
2023/08/05 06:40:25;;;;;;;17.00;7.50;;;;;;;29.18;89.26;100859.31;105502;1257;70744;-46
2023/08/05 06:42:56;;;;;;;9.30;7.10;;;;;;;29.29;88.26;100859.73;105502;1257;60562;-45
2023/08/05 06:45:26;;;;;;;18.10;6.80;;;;;;;29.38;82.28;100833.67;105649;1258;60443;-47
2023/08/05 06:47:54;;;;;;;7.70;7.00;;;;;;;29.44;84.31;100848.26;105546;1254;73970;-45
2023/08/05 06:50:22;;;;;;;9.10;7.10;;;;;;;29.44;83.92;100851.30;105540;1260;65999;-47
2023/08/05 06:52:50;;;;;;;7.80;7.00;;;;;;;29.45;82.76;100845.34;105552;1259;72698;-45
2023/08/05 06:55:18;;;;;;;15.90;7.30;;;;;;;29.48;85.08;100858.70;105582;1260;60541;-45
2023/08/05 06:57:48;;;;;;;11.30;7.10;;;;;;;29.52;86.02;100861.38;105570;1260;60530;-45
2023/08/05 07:00:16;;;;;;;19.50;7.20;;;;;;;29.56;83.34;100845.71;105700;1259;73814;-45
2023/08/05 07:02:44;;;;;;;15.20;7.10;;;;;;;29.63;82.58;100841.29;105692;1260;65587;-45
2023/08/05 07:05:12;;;;;;;23.10;7.70;;;;;;;29.65;80.55;100831.88;105515;1257;71721;-46
2023/08/05 07:07:40;;;;;;;26.70;7.90;;;;;;;29.62;77.88;100827.42;105641;1257;60409;-46
2023/08/05 07:10:11;;;;;;;10.50;6.20;;;;;;;29.59;79.75;100847.05;105622;1257;61047;-45
2023/08/05 07:12:39;;;;;;;15.50;6.90;;;;;;;29.66;82.44;100857.56;105713;1254;72585;-45
2023/08/05 07:15:07;;;;;;;16.40;7.10;;;;;;;29.81;82.92;100852.46;105479;1260;63941;-45
2023/08/05 07:17:35;;;;;;;9.50;6.40;;;;;;;29.93;81.23;100837.42;105511;1254;73220;-45
2023/08/05 07:20:04;;;;;;;24.40;6.50;;;;;;;30.10;82.35;100843.75;105813;1257;60396;-45
2023/08/05 07:22:32;;;;;;;10.30;6.10;;;;;;;30.23;76.43;100797.30;105622;1257;60495;-44
2023/08/05 07:25:00;;;;;;;8.30;5.50;;;;;;;30.34;72.94;100776.11;105535;1254;72688;-44
2023/08/05 07:27:27;;;;;;;5.20;4.80;;;;;;;30.49;71.30;100772.88;105586;1255;65434;-45
2023/08/05 07:29:55;;;;;;;13.90;5.80;;;;;;;30.59;67.14;100716.38;105536;1254;72648;-45
2023/08/05 07:32:23;;;;;;;8.60;5.40;;;;;;;30.65;67.77;100747.26;105480;1258;60534;-45
2023/08/05 07:34:54;;;;;;;6.50;5.40;;;;;;;30.71;66.45;100725.06;105537;1255;60379;-45
2023/08/05 07:37:22;;;;;;;12.20;6.00;;;;;;;30.74;64.77;100710.09;105717;1254;72618;-45
2023/08/05 07:39:50;;;;;;;11.80;8.30;;;;;;;30.86;66.34;100751.31;105633;1259;65295;-46
2023/08/05 07:42:22;;;;;;;88.90;11.20;;;;;;;30.94;66.17;100754.17;105690;1254;71490;-46
2023/08/05 07:44:52;;;;;;;22.30;6.90;;;;;;;31.01;66.83;100772.58;105672;1254;60534;-46
2023/08/05 07:47:19;;;;;;;11.90;5.70;;;;;;;31.11;67.75;100791.15;105569;1254;60393;-44
2023/08/05 07:49:48;;;;;;;14.90;5.50;;;;;;;31.20;63.97;100705.18;105524;1260;73842;-46
2023/08/05 07:52:16;;;;;;;6.90;5.40;;;;;;;31.19;64.09;100720.17;105711;1257;63951;-46
2023/08/05 07:54:45;;;;;;;6.00;5.40;;;;;;;31.29;64.93;100748.79;105607;1259;72717;-46
2023/08/05 07:57:13;;;;;;;7.30;5.60;;;;;;;31.42;63.14;100696.81;105536;1260;60487;-46
2023/08/05 07:59:40;;;;;;;7.40;5.30;;;;;;;31.48;61.94;100678.23;105569;1259;60489;-46
2023/08/05 08:02:10;;;;;;;8.40;5.40;;;;;;;31.49;61.72;100678.06;105872;1254;72638;-46
2023/08/05 08:04:38;;;;;;;6.10;5.30;;;;;;;31.56;61.32;100670.80;105565;1254;63917;-45
2023/08/05 08:07:05;;;;;;;6.60;6.00;;;;;;;31.55;56.08;100483.84;105665;1254;72658;-45
2023/08/05 08:09:33;;;;;;;10.20;5.40;;;;;;;31.50;55.64;100506.46;105560;1259;62105;-45
2023/08/05 08:12:01;;;;;;;7.30;6.50;;;;;;;31.55;56.50;100570.02;105655;1260;60483;-45
2023/08/05 08:14:28;;;;;;;7.20;6.10;;;;;;;31.61;54.25;100453.30;105588;1259;72720;-46
2023/08/05 08:16:57;;;;;;;8.80;6.30;;;;;;;31.60;56.07;100572.66;105569;1254;64558;-45
2023/08/05 08:19:25;;;;;;;10.90;6.30;;;;;;;31.69;58.06;100664.09;105949;1257;71983;-45
2023/08/05 08:21:53;;;;;;;7.10;6.30;;;;;;;31.84;56.88;100608.21;105587;1257;60540;-47
2023/08/05 08:24:20;;;;;;;9.20;6.70;;;;;;;32.00;55.63;100549.54;105625;1259;60390;-46
2023/08/05 08:26:50;;;;;;;10.10;6.50;;;;;;;32.17;55.44;100553.04;105584;1253;72662;-45
2023/08/05 08:29:18;;;;;;;7.80;6.50;;;;;;;32.34;56.70;100617.48;105608;1259;63912;-45
2023/08/05 08:31:46;;;;;;;8.40;7.00;;;;;;;32.49;52.46;100364.34;105552;1256;71395;-47
2023/08/05 08:34:13;;;;;;;7.70;6.30;;;;;;;32.49;54.18;100513.23;105646;1259;60330;-45
2023/08/05 08:36:41;;;;;;;8.10;7.00;;;;;;;32.52;53.97;100511.05;105650;1259;60463;-46
2023/08/05 08:39:09;;;;;;;7.70;6.90;;;;;;;32.60;54.21;100527.49;105462;1254;72889;-46
2023/08/05 08:41:41;;;;;;;48.80;8.20;;;;;;;32.67;54.08;100524.14;105640;1254;64873;-47
2023/08/05 08:44:10;;;;;;;7.40;6.70;;;;;;;32.73;52.54;100430.31;105730;1254;71452;-46
2023/08/05 08:46:38;;;;;;;12.20;7.20;;;;;;;32.73;52.06;100396.85;105604;1253;60528;-46
2023/08/05 08:49:07;;;;;;;11.20;7.10;;;;;;;32.79;53.61;100526.09;105737;1258;60401;-46
2023/08/05 08:51:35;;;;;;;7.90;7.20;;;;;;;32.92;53.82;100538.30;105663;1254;72624;-46
2023/08/05 08:54:03;;;;;;;57.20;45.50;;;;;;;32.98;54.59;100580.46;105793;1253;64076;-47
2023/08/05 08:56:35;;;;;;;23.00;17.00;;;;;;;33.05;51.94;100392.65;105633;1260;71406;-47
2023/08/05 08:59:03;;;;;;;11.40;8.90;;;;;;;33.07;51.63;100380.43;105734;1258;60616;-46
2023/08/05 09:01:31;;;;;;;10.50;7.10;;;;;;;33.01;53.34;100517.55;105589;1253;60518;-46
2023/08/05 09:03:59;;;;;;;11.80;7.10;;;;;;;32.96;54.58;100600.94;105560;1258;73943;-46
2023/08/05 09:06:27;;;;;;;10.60;6.90;;;;;;;32.91;54.68;100593.40;105525;1258;64623;-48
2023/08/05 09:08:55;;;;;;;8.00;7.10;;;;;;;32.88;54.62;100585.48;105275;1261;71697;-45
2023/08/05 09:11:23;;;;;;;7.00;6.50;;;;;;;33.00;55.94;100644.02;105595;1256;60429;-46
2023/08/05 09:13:52;;;;;;;12.10;6.70;;;;;;;33.22;54.73;100562.19;105553;1260;60317;-46
2023/08/05 09:16:20;;;;;;;7.90;7.10;;;;;;;33.39;55.34;100596.06;105610;1259;72579;-45
2023/08/05 09:18:55;;;;;;;13.40;7.50;;;;;;;33.58;54.63;100553.17;105565;1259;64208;-45
2023/08/05 09:21:27;;;;;;;10.50;6.70;;;;;;;33.78;53.87;100511.17;105600;1258;72657;-46
2023/08/05 09:23:55;;;;;;;8.10;6.90;;;;;;;33.79;50.21;100256.70;105653;1259;60527;-46
2023/08/05 09:26:30;;;;;;;21.50;7.70;;;;;;;33.65;51.19;100358.33;105740;1258;61615;-46
2023/08/05 09:28:59;;;;;;;18.80;7.50;;;;;;;33.52;51.48;100410.86;105587;1256;72627;-45
2023/08/05 09:31:27;;;;;;;13.90;7.60;;;;;;;33.44;53.02;100518.66;105642;1258;63979;-44
2023/08/05 09:33:55;;;;;;;11.00;6.80;;;;;;;33.46;53.10;100523.90;105834;1259;73119;-45
2023/08/05 09:36:24;;;;;;;28.90;7.60;;;;;;;33.64;53.18;100512.48;105587;1255;60595;-44
2023/08/05 09:39:11;;;;;;;9.70;6.70;;;;;;;33.78;54.19;100581.10;105680;1256;60517;-44
2023/08/05 09:41:39;;;;;;;10.50;6.70;;;;;;;33.94;51.78;100399.47;105603;1259;71900;-45
2023/08/05 09:44:11;;;;;;;12.90;7.20;;;;;;;33.95;51.12;100363.15;105492;1256;65174;-45
2023/08/05 09:46:43;;;;;;;9.60;6.60;;;;;;;33.95;51.42;100401.48;105568;1259;71861;-46
2023/08/05 09:49:14;;;;;;;12.80;6.40;;;;;;;34.05;52.20;100473.83;105679;1256;60538;-46
2023/08/05 09:51:44;;;;;;;11.10;6.80;;;;;;;34.15;50.22;100326.61;105759;1256;60342;-46
2023/08/05 09:54:13;;;;;;;16.40;6.50;;;;;;;34.14;49.97;100316.45;105558;1260;73825;-45
2023/08/05 09:56:41;;;;;;;28.70;7.20;;;;;;;33.96;50.13;100333.17;105539;1254;65366;-45
2023/08/05 09:59:09;;;;;;;9.40;6.50;;;;;;;33.91;51.24;100447.92;105585;1255;73058;-46
2023/08/05 10:01:37;;;;;;;7.50;6.20;;;;;;;33.94;50.24;100352.41;105495;1254;60422;-45
2023/08/05 10:04:05;;;;;;;72.20;8.80;;;;;;;33.94;50.16;100345.20;105730;1260;60422;-45
2023/08/05 10:06:38;;;;;;;14.80;7.70;;;;;;;33.96;51.08;100432.89;105665;1259;72954;-45
2023/08/05 10:09:07;;;;;;;15.20;7.10;;;;;;;34.08;49.52;100293.70;105498;1259;65151;-45
2023/08/05 10:11:37;;;;;;;17.00;6.70;;;;;;;34.07;50.08;100343.14;105577;1254;71433;-44
2023/08/05 10:14:04;;;;;;;46.50;8.00;;;;;;;34.13;49.50;100321.73;105640;1254;60479;-45
2023/08/05 10:16:32;;;;;;;35.20;9.00;;;;;;;34.16;48.81;100250.85;105515;1257;60689;-46
2023/08/05 10:19:00;;;;;;;47.10;8.80;;;;;;;34.08;48.48;100198.94;105713;1254;72541;-46
2023/08/05 10:21:37;;;;;;;27.40;7.70;;;;;;;34.01;48.88;100248.70;105520;1259;65274;-46
2023/08/05 10:24:05;;;;;;;33.20;9.00;;;;;;;34.08;50.36;100400.65;105525;1256;71191;-47
2023/08/05 10:26:44;;;;;;;85.50;8.70;;;;;;;34.21;50.57;100419.55;105526;1259;60556;-46
2023/08/05 10:29:32;;;;;;;56.00;9.30;;;;;;;34.38;49.87;100335.33;105837;1254;60460;-45
2023/08/05 10:32:10;;;;;;;88.20;10.70;;;;;;;34.57;50.18;100383.61;105538;1258;74102;-46
2023/08/05 10:34:38;;;;;;;42.50;8.40;;;;;;;34.61;48.38;100178.93;105563;1254;65169;-46
2023/08/05 10:37:06;;;;;;;16.90;7.30;;;;;;;34.59;47.78;100147.34;105449;1255;72055;-46
2023/08/05 10:39:39;;;;;;;29.90;7.70;;;;;;;34.57;49.29;100298.35;105503;1257;60463;-46
2023/08/05 10:42:40;;;;;;;62.30;9.50;;;;;;;34.68;49.15;100287.27;105723;1258;60442;-46
2023/08/05 10:45:09;;;;;;;41.70;7.40;;;;;;;34.76;47.54;100164.02;105604;1254;72640;-46
2023/08/05 10:47:45;;;;;;;12.70;6.60;;;;;;;34.73;47.28;100120.25;105591;1254;65171;-46
2023/08/05 10:50:14;;;;;;;13.20;5.80;;;;;;;34.76;47.90;100204.61;105557;1256;72822;-46
2023/08/05 10:52:42;;;;;;;11.90;6.20;;;;;;;34.82;46.80;100095.27;105690;1256;60559;-46
2023/08/05 10:55:12;;;;;;;8.50;6.30;;;;;;;34.85;47.08;100118.95;105597;1254;60435;-46
2023/08/05 10:57:40;;;;;;;5.90;5.40;;;;;;;34.87;46.18;100031.02;105613;1254;73021;-46
2023/08/05 11:00:16;;;;;;;6.90;5.90;;;;;;;34.91;45.89;99996.41;105467;1257;64057;-46
2023/08/05 11:02:46;;;;;;;9.40;6.70;;;;;;;34.97;45.62;99967.91;105584;1260;72684;-47
2023/08/05 11:05:15;;;;;;;6.80;6.10;;;;;;;35.00;44.54;99889.84;105512;1258;60372;-45
2023/08/05 11:07:43;;;;;;;67.00;9.10;;;;;;;34.95;44.85;99906.13;105485;1260;60430;-46
2023/08/05 11:10:12;;;;;;;12.10;5.90;;;;;;;34.97;44.09;99824.45;105622;1254;74274;-46
2023/08/05 11:12:39;;;;;;;8.90;5.20;;;;;;;35.03;43.17;99721.41;105503;1255;63953;-46
2023/08/05 11:15:08;;;;;;;6.20;5.60;;;;;;;35.11;43.75;99753.30;105597;1257;71425;-46